createdAt,value
2022-11-25T00:47:23.429Z,93.95
2022-11-25T00:49:55.035Z,94.01
2022-11-25T00:52:25.717Z,94.31
2022-11-25T00:54:53.782Z,94.17
2022-11-25T00:57:23.092Z,94.49
2022-11-25T00:59:50.841Z,94.64
2022-11-25T01:02:19.169Z,95.30
2022-11-25T01:04:47.116Z,94.47
2022-11-25T01:07:14.501Z,94.80
2022-11-25T01:09:41.889Z,94.99
2022-11-25T01:12:09.402Z,95.16
2022-11-25T01:14:36.965Z,94.10
2022-11-25T01:17:03.922Z,94.22
2022-11-25T01:19:30.853Z,93.95
2022-11-25T01:21:57.716Z,93.64
2022-11-25T01:24:26.478Z,93.68
2022-11-25T01:26:55.797Z,93.10
2022-11-25T01:29:23.232Z,94.05
2022-11-25T01:31:50.984Z,93.54
2022-11-25T01:34:23.856Z,94.55
2022-11-25T01:36:51.235Z,94.46
2022-11-25T01:39:20.626Z,94.99
2022-11-25T01:41:48.576Z,94.86
2022-11-25T01:44:20.583Z,95.30
2022-11-25T01:47:09.432Z,95.12
2022-11-25T01:49:53.881Z,95.99
2022-11-25T01:52:36.806Z,95.69
2022-11-25T01:55:10.155Z,96.27
2022-11-25T01:57:51.427Z,94.77
2022-11-25T02:00:19.135Z,94.66
2022-11-25T02:02:47.951Z,95.28
2022-11-25T02:05:18.541Z,94.56
2022-11-25T02:07:48.816Z,94.73
2022-11-25T02:48:16.276Z,90.99
2022-11-25T05:48:28.205Z,90.86
2022-11-25T05:50:55.081Z,90.36
2022-11-25T05:53:22.042Z,90.88
2022-11-25T05:55:57.204Z,90.76
2022-11-25T05:58:24.592Z,90.00
2022-11-25T06:00:51.954Z,89.87
2022-11-25T06:03:27.678Z,89.41
2022-11-25T06:05:58.184Z,90.53
2022-11-25T06:08:25.950Z,90.81
2022-11-25T06:10:53.418Z,90.51
2022-11-25T06:13:20.856Z,90.72
2022-11-25T06:15:48.257Z,90.78
2022-11-25T06:18:17.287Z,91.41
2022-11-25T06:20:44.248Z,91.51
2022-11-25T06:23:11.236Z,90.82
2022-11-25T06:25:38.221Z,91.78
2022-11-25T06:28:12.683Z,90.76
2022-11-25T06:30:39.974Z,91.05
2022-11-25T06:33:06.907Z,91.04
2022-11-25T06:35:33.712Z,90.29
2022-11-25T06:38:03.217Z,91.24
2022-11-25T06:40:30.256Z,91.63
2022-11-25T06:43:19.211Z,90.65
2022-11-25T06:45:46.042Z,89.74
2022-11-25T06:48:12.910Z,91.02
2022-11-25T06:50:39.896Z,90.86
2022-11-25T06:53:06.697Z,90.37
2022-11-25T06:55:35.886Z,89.24
2022-11-25T06:58:28.302Z,89.38
2022-11-25T07:00:49.704Z,87.68
2022-11-25T07:03:16.637Z,88.77
2022-11-25T07:05:43.525Z,88.69
2022-11-25T07:08:10.359Z,87.76
2022-11-25T07:10:37.274Z,88.38
2022-11-25T07:13:04.163Z,89.63
2022-11-25T07:15:30.954Z,90.42
2022-11-25T07:17:58.484Z,89.83
2022-11-25T07:20:27.981Z,88.63
2022-11-25T07:22:55.064Z,87.22
2022-11-25T07:25:24.428Z,87.52
2022-11-25T07:27:54.825Z,87.26
2022-11-25T07:33:09.314Z,87.00
2022-11-25T07:35:36.221Z,88.12
2022-11-25T07:38:03.213Z,88.07
2022-11-25T07:40:30.154Z,87.56
2022-11-25T07:42:57.082Z,87.55
2022-11-25T07:45:26.851Z,87.37
2022-11-25T07:47:53.728Z,85.77
2022-11-25T07:50:21.634Z,85.57
2022-11-25T07:52:48.475Z,84.00
2022-11-25T07:55:15.601Z,84.06
2022-11-25T07:57:42.403Z,83.39
2022-11-25T08:00:09.833Z,83.56
2022-11-25T08:02:36.797Z,83.04
2022-11-25T08:05:03.843Z,82.34
2022-11-25T08:07:36.189Z,80.95
2022-11-25T08:10:04.135Z,80.71
2022-11-25T08:12:32.708Z,80.95
2022-11-25T08:14:59.497Z,80.87
2022-11-25T08:17:26.500Z,81.06
2022-11-25T08:19:53.565Z,81.78
2022-11-25T08:22:20.488Z,81.00
2022-11-25T08:24:47.405Z,80.08
2022-11-25T08:27:14.552Z,80.39
2022-11-25T08:29:41.476Z,80.90
2022-11-25T08:32:12.011Z,80.56
2022-11-25T08:34:39.205Z,80.87
2022-11-25T08:37:06.112Z,81.11
2022-11-25T09:46:42.067Z,78.73
2022-11-25T09:49:23.146Z,78.32
2022-11-25T09:51:50.174Z,77.96
2022-11-25T09:54:35.828Z,78.26
2022-11-25T09:57:27.524Z,79.21
2022-11-25T10:00:19.856Z,78.91
2022-11-25T10:03:10.490Z,79.41
2022-11-25T10:05:42.117Z,77.98
2022-11-25T10:08:15.948Z,77.78
2022-11-25T10:10:48.016Z,75.73
2022-11-25T10:13:30.768Z,73.94
2022-11-25T10:16:02.022Z,73.83
2022-11-25T10:18:52.119Z,73.29
2022-11-25T10:21:19.159Z,71.87
2022-11-25T10:23:46.259Z,70.69
2022-11-25T10:26:16.741Z,69.83
2022-11-25T10:28:53.718Z,68.28
2022-11-25T10:31:40.326Z,69.74
2022-11-25T10:34:37.044Z,66.90
2022-11-25T10:50:31.567Z,67.66
2022-11-25T10:53:22.032Z,67.47
2022-11-25T10:56:10.053Z,67.14
2022-11-25T10:58:39.714Z,67.89
2022-11-25T11:01:22.476Z,70.28
2022-11-25T11:04:06.959Z,68.25
2022-11-25T11:06:38.252Z,69.83
2022-11-25T11:09:05.379Z,69.93
2022-11-25T11:11:32.313Z,69.37
2022-11-25T11:14:13.885Z,70.72
2022-11-25T11:16:45.612Z,68.48
2022-11-25T11:19:42.210Z,65.64
2022-11-25T11:22:17.366Z,64.95
2022-11-25T11:24:44.253Z,64.32
2022-11-25T11:27:22.890Z,65.73
2022-11-25T11:30:09.436Z,63.45
2022-11-25T11:32:37.645Z,63.15
2022-11-25T11:35:21.125Z,62.68
2022-11-25T11:37:54.466Z,62.74
2022-11-25T11:40:30.226Z,63.02
2022-11-25T11:43:41.106Z,61.67
2022-11-25T11:46:08.303Z,61.55
2022-11-25T11:48:48.676Z,62.01
2022-11-25T11:51:30.318Z,62.19
2022-11-25T11:54:09.039Z,62.75
2022-11-25T11:56:41.848Z,61.91
2022-11-25T11:59:30.076Z,61.44
2022-11-25T12:02:22.168Z,64.66
2022-11-25T12:05:11.592Z,77.28
2022-11-25T12:07:41.771Z,60.52
2022-11-25T12:10:20.356Z,60.92
2022-11-25T12:12:56.516Z,63.24
2022-11-25T12:15:49.898Z,64.11
2022-11-25T12:18:39.161Z,65.26
2022-11-25T12:21:13.931Z,65.58
2022-11-25T12:24:18.345Z,65.29
2022-11-25T12:26:57.328Z,67.29
2022-11-25T12:29:54.363Z,68.09
2022-11-25T12:32:42.349Z,65.87
2022-11-25T12:35:12.008Z,67.58
2022-11-25T12:38:06.144Z,65.89
2022-11-25T12:40:42.269Z,66.17
2022-11-25T12:43:29.945Z,64.65
2022-11-25T12:46:42.995Z,63.42
2022-11-25T12:50:02.144Z,64.12
2022-11-25T12:55:41.925Z,63.53
2022-11-25T12:58:30.032Z,64.62
2022-11-25T13:01:22.235Z,65.71
2022-11-25T13:04:10.926Z,65.87
2022-11-25T13:07:16.531Z,65.26
2022-11-25T13:10:14.122Z,66.44
2022-11-25T13:13:03.470Z,67.89
2022-11-25T13:15:38.662Z,68.08
2022-11-25T13:18:13.599Z,67.32
2022-11-25T13:20:55.192Z,68.70
2022-11-25T13:23:43.318Z,68.51
2022-11-25T13:26:33.006Z,69.16
2022-11-25T13:29:15.218Z,70.91
2022-11-25T13:32:03.005Z,69.08
2022-11-25T13:34:35.569Z,69.20
2022-11-25T13:37:43.353Z,69.75
2022-11-25T13:40:40.556Z,70.50
2022-11-25T13:43:22.345Z,69.94
2022-11-25T13:45:50.934Z,69.94
2022-11-25T13:48:25.608Z,69.76
2022-11-25T13:51:13.271Z,70.26
2022-11-25T13:53:44.426Z,69.92
2022-11-25T13:56:31.194Z,70.93
2022-11-25T13:59:17.308Z,70.73
2022-11-25T14:01:46.969Z,71.73
2022-11-25T14:04:16.544Z,72.21
2022-11-25T14:07:34.539Z,72.79
2022-11-25T14:10:29.302Z,73.06
2022-11-25T14:13:19.703Z,73.43
2022-11-25T14:16:07.204Z,73.61
2022-11-25T14:22:03.162Z,73.95
2022-11-25T14:24:43.717Z,73.99
2022-11-25T14:27:34.444Z,74.60
2022-11-25T14:30:06.621Z,75.36
2022-11-25T14:33:25.304Z,75.42
2022-11-25T14:35:56.440Z,75.60
2022-11-25T14:38:51.830Z,76.67
2022-11-25T14:41:31.685Z,76.66
2022-11-25T14:44:07.216Z,76.67
2022-11-25T14:46:34.333Z,76.52
2022-11-25T14:49:07.712Z,76.95
2022-11-25T14:51:43.454Z,76.93
2022-11-25T14:54:15.505Z,77.23
2022-11-25T14:56:43.100Z,77.27
2022-11-25T14:59:14.333Z,77.80
2022-11-25T15:01:54.631Z,78.21
2022-11-25T15:04:26.904Z,78.44
2022-11-25T15:07:04.703Z,78.05
2022-11-25T15:09:49.787Z,78.31
2022-11-25T15:12:22.583Z,78.38
2022-11-25T15:14:56.434Z,79.23
2022-11-25T15:17:23.183Z,79.17
2022-11-25T15:19:50.994Z,79.64
2022-11-25T15:22:23.702Z,81.14
2022-11-25T15:25:07.581Z,80.45
2022-11-25T15:27:55.372Z,80.78
2022-11-25T16:14:29.387Z,86.44
2022-11-25T16:17:14.203Z,85.42
2022-11-25T16:34:28.375Z,88.28
2022-11-25T16:36:59.584Z,87.73
2022-11-25T16:39:27.996Z,88.67
2022-11-25T16:42:16.991Z,88.49
2022-11-25T16:44:48.387Z,88.87
2022-11-25T16:47:21.149Z,88.39
2022-11-25T16:50:21.365Z,88.63
2022-11-25T16:52:50.110Z,88.74
2022-11-25T16:55:47.357Z,88.59
2022-11-25T16:58:27.141Z,88.66
2022-11-25T17:00:56.755Z,88.54
2022-11-25T17:03:27.024Z,88.47
2022-11-25T17:05:56.653Z,88.97
2022-11-25T17:08:37.564Z,88.65
2022-11-25T17:11:06.747Z,89.73
2022-11-25T17:13:52.773Z,90.25
2022-11-25T17:16:25.389Z,90.63
2022-11-25T17:19:03.068Z,89.80
2022-11-25T17:21:55.687Z,90.11
2022-11-25T17:24:31.053Z,90.66
2022-11-25T17:27:41.558Z,90.82
2022-11-25T17:30:25.259Z,90.65
2022-11-25T17:33:01.540Z,90.17
2022-11-25T17:35:29.270Z,90.44
2022-11-25T17:38:00.161Z,91.07
2022-11-25T17:40:30.293Z,90.54
2022-11-25T17:42:59.411Z,90.92
2022-11-25T17:45:28.160Z,90.10
2022-11-25T17:47:55.954Z,90.38
2022-11-25T17:50:26.515Z,90.25
2022-11-25T17:53:07.295Z,90.53
2022-11-25T17:55:39.463Z,90.64
2022-11-25T17:58:31.481Z,92.22
2022-11-25T18:01:57.099Z,91.26
2022-11-25T18:04:38.774Z,90.77
2022-11-25T18:07:07.246Z,91.05
2022-11-25T18:09:36.722Z,90.05
2022-11-25T18:12:09.660Z,90.52
2022-11-25T18:14:43.318Z,90.61
2022-11-25T18:17:19.226Z,90.33
2022-11-25T18:19:57.374Z,91.01
2022-11-25T18:22:33.373Z,90.70
2022-11-25T18:25:03.158Z,91.42
2022-11-25T18:28:28.917Z,90.86
2022-11-25T18:31:04.038Z,91.39
2022-11-25T18:33:32.236Z,91.37
2022-11-25T18:35:59.082Z,91.39
2022-11-25T18:38:51.666Z,91.47
2022-11-25T18:41:23.544Z,90.82
2022-11-25T18:43:51.780Z,88.75
2022-11-25T18:51:48.981Z,90.15
2022-11-25T18:57:31.542Z,90.97
2022-11-25T19:05:43.241Z,91.07
2022-11-25T19:08:10.381Z,91.30
2022-11-25T19:10:41.977Z,89.97
2022-11-25T19:19:01.609Z,91.58
2022-11-25T19:21:31.295Z,90.80
2022-11-25T19:23:58.300Z,90.96
2022-11-25T19:26:33.708Z,90.13
2022-11-25T19:29:09.402Z,91.33
2022-11-25T19:31:36.747Z,90.29
2022-11-25T19:39:21.518Z,90.51
2022-11-25T19:41:48.813Z,91.05
2022-11-25T19:44:15.920Z,89.87
2022-11-25T19:47:13.665Z,90.30
2022-11-25T19:49:35.601Z,90.17
2022-11-25T19:52:02.603Z,90.24
2022-11-25T19:54:29.749Z,90.70
2022-11-25T19:56:56.664Z,90.16
2022-11-25T19:59:24.359Z,89.63
2022-11-25T20:01:51.222Z,89.75
2022-11-25T20:04:22.432Z,91.82
2022-11-25T20:06:50.068Z,92.68
2022-11-25T20:09:17.040Z,91.27
2022-11-25T20:11:44.061Z,90.19
2022-11-25T20:14:12.456Z,91.23
2022-11-25T20:16:41.463Z,90.93
2022-11-25T20:19:17.242Z,90.99
2022-11-25T20:21:46.575Z,91.03
2022-11-25T20:24:17.178Z,91.55
2022-11-25T20:26:49.049Z,91.15
2022-11-25T20:29:25.936Z,91.21
2022-11-25T20:31:56.366Z,90.28
2022-11-25T20:34:24.410Z,90.18
2022-11-25T20:36:51.374Z,90.66
2022-11-25T20:39:20.605Z,90.38
2022-11-25T20:41:50.982Z,90.32
2022-11-25T20:44:18.572Z,90.32
2022-11-25T20:46:45.680Z,90.37
2022-11-25T20:49:29.337Z,90.36
2022-11-25T20:51:57.430Z,94.06
2022-11-25T20:54:25.776Z,90.12
2022-11-25T20:59:29.131Z,91.01
2022-11-25T21:01:56.345Z,89.73
2022-11-25T21:04:23.873Z,90.56
2022-11-25T21:06:51.061Z,90.70
2022-11-25T21:09:25.148Z,90.24
2022-11-25T21:11:52.218Z,91.10
2022-11-25T21:14:20.700Z,90.40
2022-11-25T21:16:47.943Z,90.86
2022-11-25T21:19:14.904Z,90.17
2022-11-25T21:21:45.532Z,89.61
2022-11-25T21:24:26.786Z,89.53
2022-11-25T21:26:55.029Z,90.44
2022-11-25T21:29:21.859Z,90.75
2022-11-25T21:31:48.853Z,91.16
2022-11-25T21:34:16.065Z,91.19
2022-11-25T21:36:46.283Z,91.60
2022-11-25T21:39:34.213Z,90.78
2022-11-25T21:42:05.305Z,90.67
2022-11-25T21:44:36.612Z,90.27
2022-11-25T21:47:15.573Z,90.74
2022-11-25T21:49:43.077Z,90.41
2022-11-25T21:52:10.359Z,90.08
2022-11-25T21:54:37.430Z,90.04
2022-11-25T21:57:04.830Z,89.75
2022-11-25T21:59:32.351Z,90.53
2022-11-25T22:01:59.160Z,89.99
2022-11-25T22:04:26.129Z,89.70
2022-11-25T22:06:52.998Z,89.74
2022-11-25T22:09:19.907Z,90.04
2022-11-25T22:11:49.219Z,90.70
2022-11-25T22:14:34.560Z,90.95
2022-11-25T22:17:10.879Z,89.66
2022-11-25T22:19:37.698Z,90.23
2022-11-25T22:22:04.536Z,90.15
2022-11-25T22:24:33.667Z,90.49
2022-11-25T22:27:00.588Z,89.53
2022-11-25T22:29:33.407Z,90.98
2022-11-25T22:33:36.875Z,91.38
2022-11-25T22:36:05.345Z,90.32
2022-11-25T22:38:32.485Z,90.66
2022-11-25T22:41:02.815Z,90.99
2022-11-25T22:43:37.093Z,91.18
2022-11-25T22:46:05.072Z,90.36
2022-11-25T22:48:35.166Z,90.16
2022-11-25T22:51:02.334Z,90.27
2022-11-25T22:53:29.413Z,90.08
2022-11-25T22:55:58.469Z,91.65
2022-11-25T22:58:27.303Z,89.98
2022-11-25T23:00:56.277Z,90.62
2022-11-25T23:03:25.335Z,91.04
2022-11-25T23:05:53.104Z,91.31
2022-11-25T23:08:28.525Z,91.84
2022-11-25T23:10:56.329Z,90.88
2022-11-25T23:13:23.941Z,90.60
2022-11-25T23:15:57.636Z,90.91
2022-11-25T23:18:41.419Z,91.16
2022-11-25T23:21:19.483Z,91.13
2022-11-25T23:23:46.529Z,91.74
2022-11-25T23:26:15.495Z,91.20
2022-11-25T23:28:42.673Z,90.71
2022-11-25T23:31:13.598Z,91.45
2022-11-25T23:33:44.649Z,90.92
2022-11-25T23:36:19.645Z,90.35
2022-11-25T23:39:01.856Z,91.46
2022-11-25T23:41:31.542Z,91.06
2022-11-25T23:44:26.296Z,91.72
2022-11-25T23:46:57.739Z,91.41
2022-11-25T23:49:34.073Z,91.50
2022-11-25T23:52:08.328Z,90.67
2022-11-25T23:54:40.886Z,89.86
2022-11-25T23:57:16.115Z,90.15
2022-11-25T23:59:44.185Z,90.47
